sensor_id;sensor_type;location;lat;lon;timestamp;P1;durP1;ratioP1;P2;durP2;ratioP2
23155;SDS011;11746;50.876;4.246;2024-01-15T00:02:14;19.35;;;9.75;;
23155;SDS011;11746;50.876;4.246;2024-01-15T00:04:40;20.33;;;10.00;;
23155;SDS011;11746;50.876;4.246;2024-01-15T00:07:09;18.25;;;9.82;;
23155;SDS011;11746;50.876;4.246;2024-01-15T00:09:34;22.00;;;9.98;;
23155;SDS011;11746;50.876;4.246;2024-01-15T00:12:01;19.70;;;9.05;;
23155;SDS011;11746;50.876;4.246;2024-01-15T00:14:27;21.95;;;9.95;;
23155;SDS011;11746;50.876;4.246;2024-01-15T00:16:53;16.83;;;8.80;;
23155;SDS011;11746;50.876;4.246;2024-01-15T00:19:23;16.77;;;8.52;;
23155;SDS011;11746;50.876;4.246;2024-01-15T00:21:49;17.00;;;9.10;;
23155;SDS011;11746;50.876;4.246;2024-01-15T00:24:18;16.23;;;8.43;;
23155;SDS011;11746;50.876;4.246;2024-01-15T00:26:44;16.85;;;8.80;;
23155;SDS011;11746;50.876;4.246;2024-01-15T00:29:12;16.60;;;8.82;;
23155;SDS011;11746;50.876;4.246;2024-01-15T00:31:38;15.98;;;8.60;;
23155;SDS011;11746;50.876;4.246;2024-01-15T00:34:06;16.92;;;8.52;;
23155;SDS011;11746;50.876;4.246;2024-01-15T00:36:31;16.10;;;8.10;;
23155;SDS011;11746;50.876;4.246;2024-01-15T00:38:57;14.25;;;8.00;;
23155;SDS011;11746;50.876;4.246;2024-01-15T00:41:22;20.98;;;8.23;;
23155;SDS011;11746;50.876;4.246;2024-01-15T00:43:52;14.88;;;7.38;;
23155;SDS011;11746;50.876;4.246;2024-01-15T00:46:18;13.10;;;7.30;;
23155;SDS011;11746;50.876;4.246;2024-01-15T00:48:46;13.48;;;7.20;;
23155;SDS011;11746;50.876;4.246;2024-01-15T00:51:14;12.48;;;7.35;;
23155;SDS011;11746;50.876;4.246;2024-01-15T00:53:40;13.13;;;6.93;;
23155;SDS011;11746;50.876;4.246;2024-01-15T00:56:08;10.63;;;6.50;;
23155;SDS011;11746;50.876;4.246;2024-01-15T00:58:33;8.68;;;6.00;;
23155;SDS011;11746;50.876;4.246;2024-01-15T01:00:59;10.23;;;5.97;;
23155;SDS011;11746;50.876;4.246;2024-01-15T01:03:25;12.50;;;5.57;;
23155;SDS011;11746;50.876;4.246;2024-01-15T01:05:50;11.65;;;6.55;;
23155;SDS011;11746;50.876;4.246;2024-01-15T01:08:18;10.73;;;6.00;;
23155;SDS011;11746;50.876;4.246;2024-01-15T01:10:46;8.68;;;5.20;;
23155;SDS011;11746;50.876;4.246;2024-01-15T01:13:11;10.55;;;5.60;;
23155;SDS011;11746;50.876;4.246;2024-01-15T01:15:39;7.05;;;4.95;;
23155;SDS011;11746;50.876;4.246;2024-01-15T01:18:07;8.93;;;4.93;;
23155;SDS011;11746;50.876;4.246;2024-01-15T01:20:33;6.88;;;4.70;;
23155;SDS011;11746;50.876;4.246;2024-01-15T01:22:58;8.38;;;4.57;;
23155;SDS011;11746;50.876;4.246;2024-01-15T01:25:24;6.13;;;3.97;;
23155;SDS011;11746;50.876;4.246;2024-01-15T01:27:50;8.20;;;4.43;;
23155;SDS011;11746;50.876;4.246;2024-01-15T01:30:18;6.57;;;3.90;;
23155;SDS011;11746;50.876;4.246;2024-01-15T01:32:43;7.63;;;3.40;;
23155;SDS011;11746;50.876;4.246;2024-01-15T01:35:12;11.65;;;3.75;;
23155;SDS011;11746;50.876;4.246;2024-01-15T01:37:38;9.27;;;4.05;;
23155;SDS011;11746;50.876;4.246;2024-01-15T01:40:03;7.35;;;3.83;;
23155;SDS011;11746;50.876;4.246;2024-01-15T01:42:30;6.82;;;3.33;;
23155;SDS011;11746;50.876;4.246;2024-01-15T01:44:58;5.28;;;3.45;;
23155;SDS011;11746;50.876;4.246;2024-01-15T01:47:26;5.72;;;3.38;;
23155;SDS011;11746;50.876;4.246;2024-01-15T01:49:54;6.07;;;3.78;;
23155;SDS011;11746;50.876;4.246;2024-01-15T01:52:19;7.50;;;3.42;;
23155;SDS011;11746;50.876;4.246;2024-01-15T01:54:45;4.75;;;3.10;;
23155;SDS011;11746;50.876;4.246;2024-01-15T01:57:13;6.72;;;3.55;;
23155;SDS011;11746;50.876;4.246;2024-01-15T01:59:45;4.75;;;3.28;;
23155;SDS011;11746;50.876;4.246;2024-01-15T02:02:11;7.47;;;3.30;;
23155;SDS011;11746;50.876;4.246;2024-01-15T02:04:37;5.63;;;3.42;;
23155;SDS011;11746;50.876;4.246;2024-01-15T02:07:03;4.00;;;3.08;;
23155;SDS011;11746;50.876;4.246;2024-01-15T02:09:29;8.55;;;2.95;;
23155;SDS011;11746;50.876;4.246;2024-01-15T02:11:55;3.85;;;2.78;;
23155;SDS011;11746;50.876;4.246;2024-01-15T02:14:21;4.63;;;2.65;;
23155;SDS011;11746;50.876;4.246;2024-01-15T02:16:48;4.78;;;2.60;;
23155;SDS011;11746;50.876;4.246;2024-01-15T02:19:15;4.05;;;2.67;;
23155;SDS011;11746;50.876;4.246;2024-01-15T02:21:42;7.97;;;3.53;;
23155;SDS011;11746;50.876;4.246;2024-01-15T02:24:07;5.10;;;2.53;;
23155;SDS011;11746;50.876;4.246;2024-01-15T02:26:33;6.55;;;3.10;;
23155;SDS011;11746;50.876;4.246;2024-01-15T02:29:01;6.97;;;2.60;;
23155;SDS011;11746;50.876;4.246;2024-01-15T02:31:27;4.90;;;2.80;;
23155;SDS011;11746;50.876;4.246;2024-01-15T02:33:52;6.07;;;2.50;;
23155;SDS011;11746;50.876;4.246;2024-01-15T02:36:20;6.30;;;2.63;;
23155;SDS011;11746;50.876;4.246;2024-01-15T02:38:46;7.90;;;3.35;;
23155;SDS011;11746;50.876;4.246;2024-01-15T02:41:14;3.47;;;2.60;;
23155;SDS011;11746;50.876;4.246;2024-01-15T02:43:42;6.90;;;2.92;;
23155;SDS011;11746;50.876;4.246;2024-01-15T02:46:10;5.10;;;2.90;;
23155;SDS011;11746;50.876;4.246;2024-01-15T02:48:38;4.22;;;2.85;;
23155;SDS011;11746;50.876;4.246;2024-01-15T02:51:03;8.90;;;3.60;;
23155;SDS011;11746;50.876;4.246;2024-01-15T02:53:31;6.50;;;3.30;;
23155;SDS011;11746;50.876;4.246;2024-01-15T02:55:57;6.78;;;3.70;;
23155;SDS011;11746;50.876;4.246;2024-01-15T02:58:23;6.00;;;3.08;;
23155;SDS011;11746;50.876;4.246;2024-01-15T03:00:50;6.30;;;3.20;;
23155;SDS011;11746;50.876;4.246;2024-01-15T03:03:16;7.50;;;3.70;;
23155;SDS011;11746;50.876;4.246;2024-01-15T03:05:42;5.88;;;3.67;;
23155;SDS011;11746;50.876;4.246;2024-01-15T03:08:10;8.65;;;4.22;;
23155;SDS011;11746;50.876;4.246;2024-01-15T03:10:35;10.13;;;4.47;;
23155;SDS011;11746;50.876;4.246;2024-01-15T03:13:03;6.82;;;4.78;;
23155;SDS011;11746;50.876;4.246;2024-01-15T03:15:29;8.80;;;4.93;;
23155;SDS011;11746;50.876;4.246;2024-01-15T03:17:57;8.43;;;4.43;;
23155;SDS011;11746;50.876;4.246;2024-01-15T03:20:23;7.90;;;4.47;;
23155;SDS011;11746;50.876;4.246;2024-01-15T03:22:51;8.40;;;5.13;;
23155;SDS011;11746;50.876;4.246;2024-01-15T03:25:19;9.30;;;4.97;;
23155;SDS011;11746;50.876;4.246;2024-01-15T03:27:46;10.95;;;4.85;;
23155;SDS011;11746;50.876;4.246;2024-01-15T03:30:12;10.38;;;5.28;;
23155;SDS011;11746;50.876;4.246;2024-01-15T03:32:40;9.10;;;5.55;;
23155;SDS011;11746;50.876;4.246;2024-01-15T03:35:08;9.90;;;4.95;;
23155;SDS011;11746;50.876;4.246;2024-01-15T03:37:34;9.07;;;5.38;;
23155;SDS011;11746;50.876;4.246;2024-01-15T03:40:00;9.27;;;5.03;;
23155;SDS011;11746;50.876;4.246;2024-01-15T03:42:28;9.30;;;4.75;;
23155;SDS011;11746;50.876;4.246;2024-01-15T03:44:56;10.45;;;5.82;;
23155;SDS011;11746;50.876;4.246;2024-01-15T03:47:24;9.40;;;5.53;;
23155;SDS011;11746;50.876;4.246;2024-01-15T03:49:51;11.13;;;5.47;;
23155;SDS011;11746;50.876;4.246;2024-01-15T03:52:18;11.90;;;6.78;;
23155;SDS011;11746;50.876;4.246;2024-01-15T03:54:46;11.10;;;5.80;;
23155;SDS011;11746;50.876;4.246;2024-01-15T03:57:12;12.20;;;5.90;;
23155;SDS011;11746;50.876;4.246;2024-01-15T03:59:38;10.20;;;6.55;;
23155;SDS011;11746;50.876;4.246;2024-01-15T04:02:08;13.38;;;7.28;;
23155;SDS011;11746;50.876;4.246;2024-01-15T04:04:36;14.20;;;8.20;;
23155;SDS011;11746;50.876;4.246;2024-01-15T04:07:05;12.43;;;7.88;;
23155;SDS011;11746;50.876;4.246;2024-01-15T04:09:31;17.70;;;8.60;;
23155;SDS011;11746;50.876;4.246;2024-01-15T04:11:58;15.40;;;8.20;;
23155;SDS011;11746;50.876;4.246;2024-01-15T04:14:24;14.43;;;8.32;;
23155;SDS011;11746;50.876;4.246;2024-01-15T04:16:50;12.70;;;7.22;;
23155;SDS011;11746;50.876;4.246;2024-01-15T04:19:17;14.82;;;8.00;;
23155;SDS011;11746;50.876;4.246;2024-01-15T04:21:43;16.73;;;8.68;;
23155;SDS011;11746;50.876;4.246;2024-01-15T04:24:08;12.82;;;7.93;;
23155;SDS011;11746;50.876;4.246;2024-01-15T04:26:36;13.57;;;7.38;;
23155;SDS011;11746;50.876;4.246;2024-01-15T04:29:04;11.38;;;7.45;;
23155;SDS011;11746;50.876;4.246;2024-01-15T04:31:33;12.98;;;6.75;;
23155;SDS011;11746;50.876;4.246;2024-01-15T04:34:01;11.85;;;6.55;;
23155;SDS011;11746;50.876;4.246;2024-01-15T04:36:26;11.77;;;6.03;;
23155;SDS011;11746;50.876;4.246;2024-01-15T04:38:52;10.82;;;5.47;;
23155;SDS011;11746;50.876;4.246;2024-01-15T04:41:20;9.35;;;5.30;;
23155;SDS011;11746;50.876;4.246;2024-01-15T04:43:48;9.10;;;4.88;;
23155;SDS011;11746;50.876;4.246;2024-01-15T04:46:16;8.00;;;4.65;;
23155;SDS011;11746;50.876;4.246;2024-01-15T04:48:41;7.32;;;4.88;;
23155;SDS011;11746;50.876;4.246;2024-01-15T04:51:08;7.28;;;4.07;;
23155;SDS011;11746;50.876;4.246;2024-01-15T04:53:39;7.45;;;3.90;;
23155;SDS011;11746;50.876;4.246;2024-01-15T04:56:04;6.25;;;3.55;;
23155;SDS011;11746;50.876;4.246;2024-01-15T04:58:33;4.22;;;2.75;;
23155;SDS011;11746;50.876;4.246;2024-01-15T05:00:58;9.73;;;2.63;;
23155;SDS011;11746;50.876;4.246;2024-01-15T05:03:28;4.75;;;2.47;;
23155;SDS011;11746;50.876;4.246;2024-01-15T05:05:57;5.32;;;2.00;;
23155;SDS011;11746;50.876;4.246;2024-01-15T05:08:22;3.70;;;1.70;;
23155;SDS011;11746;50.876;4.246;2024-01-15T05:10:52;5.20;;;2.13;;
23155;SDS011;11746;50.876;4.246;2024-01-15T05:13:20;3.58;;;1.65;;
23155;SDS011;11746;50.876;4.246;2024-01-15T05:15:46;4.45;;;1.70;;
23155;SDS011;11746;50.876;4.246;2024-01-15T05:18:12;3.58;;;1.60;;
23155;SDS011;11746;50.876;4.246;2024-01-15T05:20:37;5.35;;;1.85;;
23155;SDS011;11746;50.876;4.246;2024-01-15T05:23:05;2.83;;;1.73;;
23155;SDS011;11746;50.876;4.246;2024-01-15T05:25:33;3.30;;;1.88;;
23155;SDS011;11746;50.876;4.246;2024-01-15T05:28:01;5.25;;;1.80;;
23155;SDS011;11746;50.876;4.246;2024-01-15T05:30:27;8.85;;;1.95;;
23155;SDS011;11746;50.876;4.246;2024-01-15T05:32:53;5.13;;;1.88;;
23155;SDS011;11746;50.876;4.246;2024-01-15T05:35:19;3.80;;;1.40;;
23155;SDS011;11746;50.876;4.246;2024-01-15T05:37:45;3.40;;;2.13;;
23155;SDS011;11746;50.876;4.246;2024-01-15T05:40:14;3.28;;;1.48;;
23155;SDS011;11746;50.876;4.246;2024-01-15T05:42:42;2.75;;;1.35;;
23155;SDS011;11746;50.876;4.246;2024-01-15T05:45:12;2.63;;;1.27;;
23155;SDS011;11746;50.876;4.246;2024-01-15T05:47:38;2.90;;;1.30;;
23155;SDS011;11746;50.876;4.246;2024-01-15T05:50:07;2.35;;;0.80;;
23155;SDS011;11746;50.876;4.246;2024-01-15T05:52:33;5.65;;;0.90;;
23155;SDS011;11746;50.876;4.246;2024-01-15T05:54:59;4.45;;;1.10;;
23155;SDS011;11746;50.876;4.246;2024-01-15T05:57:24;4.15;;;1.10;;
23155;SDS011;11746;50.876;4.246;2024-01-15T05:59:50;3.53;;;0.98;;
23155;SDS011;11746;50.876;4.246;2024-01-15T06:02:16;1.13;;;0.70;;
23155;SDS011;11746;50.876;4.246;2024-01-15T06:04:41;4.40;;;0.90;;
23155;SDS011;11746;50.876;4.246;2024-01-15T06:07:09;4.45;;;0.73;;
23155;SDS011;11746;50.876;4.246;2024-01-15T06:09:35;3.33;;;0.80;;
23155;SDS011;11746;50.876;4.246;2024-01-15T06:12:03;4.25;;;0.80;;
23155;SDS011;11746;50.876;4.246;2024-01-15T06:14:30;2.97;;;0.80;;
23155;SDS011;11746;50.876;4.246;2024-01-15T06:16:55;3.47;;;1.10;;
23155;SDS011;11746;50.876;4.246;2024-01-15T06:19:21;5.95;;;1.20;;
23155;SDS011;11746;50.876;4.246;2024-01-15T06:21:54;3.70;;;1.15;;
23155;SDS011;11746;50.876;4.246;2024-01-15T06:24:19;5.35;;;1.40;;
23155;SDS011;11746;50.876;4.246;2024-01-15T06:26:46;3.25;;;1.60;;
23155;SDS011;11746;50.876;4.246;2024-01-15T06:29:14;5.45;;;1.38;;
23155;SDS011;11746;50.876;4.246;2024-01-15T06:31:42;3.55;;;1.45;;
23155;SDS011;11746;50.876;4.246;2024-01-15T06:34:07;3.72;;;1.52;;
23155;SDS011;11746;50.876;4.246;2024-01-15T06:36:33;3.25;;;1.83;;
23155;SDS011;11746;50.876;4.246;2024-01-15T06:39:01;3.35;;;1.50;;
23155;SDS011;11746;50.876;4.246;2024-01-15T06:41:27;3.20;;;1.63;;
23155;SDS011;11746;50.876;4.246;2024-01-15T06:43:55;6.20;;;1.70;;
23155;SDS011;11746;50.876;4.246;2024-01-15T06:46:23;6.03;;;1.88;;
23155;SDS011;11746;50.876;4.246;2024-01-15T06:48:51;2.95;;;1.30;;
23155;SDS011;11746;50.876;4.246;2024-01-15T06:51:17;3.88;;;1.42;;
23155;SDS011;11746;50.876;4.246;2024-01-15T06:53:42;5.63;;;1.50;;
23155;SDS011;11746;50.876;4.246;2024-01-15T06:56:11;4.28;;;1.80;;
23155;SDS011;11746;50.876;4.246;2024-01-15T06:58:36;4.07;;;2.15;;
23155;SDS011;11746;50.876;4.246;2024-01-15T07:01:05;5.05;;;2.08;;
23155;SDS011;11746;50.876;4.246;2024-01-15T07:03:35;6.15;;;1.80;;
23155;SDS011;11746;50.876;4.246;2024-01-15T07:06:01;4.57;;;1.65;;
23155;SDS011;11746;50.876;4.246;2024-01-15T07:08:29;3.80;;;1.42;;
23155;SDS011;11746;50.876;4.246;2024-01-15T07:10:55;8.38;;;1.80;;
23155;SDS011;11746;50.876;4.246;2024-01-15T07:13:22;2.35;;;1.10;;
23155;SDS011;11746;50.876;4.246;2024-01-15T07:15:48;4.43;;;1.67;;
23155;SDS011;11746;50.876;4.246;2024-01-15T07:18:16;5.60;;;1.77;;
23155;SDS011;11746;50.876;4.246;2024-01-15T07:20:46;6.55;;;1.45;;
23155;SDS011;11746;50.876;4.246;2024-01-15T07:23:12;6.03;;;1.63;;
23155;SDS011;11746;50.876;4.246;2024-01-15T07:25:40;5.63;;;1.52;;
23155;SDS011;11746;50.876;4.246;2024-01-15T07:28:09;4.03;;;1.70;;
23155;SDS011;11746;50.876;4.246;2024-01-15T07:30:37;4.70;;;1.90;;
23155;SDS011;11746;50.876;4.246;2024-01-15T07:33:04;7.10;;;2.13;;
23155;SDS011;11746;50.876;4.246;2024-01-15T07:35:32;6.53;;;2.80;;
23155;SDS011;11746;50.876;4.246;2024-01-15T07:37:57;10.25;;;3.83;;
23155;SDS011;11746;50.876;4.246;2024-01-15T07:40:23;6.38;;;2.95;;
23155;SDS011;11746;50.876;4.246;2024-01-15T07:42:51;5.93;;;2.50;;
23155;SDS011;11746;50.876;4.246;2024-01-15T07:45:17;6.40;;;3.00;;
23155;SDS011;11746;50.876;4.246;2024-01-15T07:47:43;4.68;;;2.95;;
23155;SDS011;11746;50.876;4.246;2024-01-15T07:50:11;6.28;;;3.28;;
23155;SDS011;11746;50.876;4.246;2024-01-15T07:52:37;9.18;;;3.05;;
23155;SDS011;11746;50.876;4.246;2024-01-15T07:55:06;7.00;;;3.40;;
23155;SDS011;11746;50.876;4.246;2024-01-15T07:57:32;7.22;;;3.28;;
23155;SDS011;11746;50.876;4.246;2024-01-15T07:59:58;5.55;;;2.75;;
23155;SDS011;11746;50.876;4.246;2024-01-15T08:02:23;7.97;;;3.08;;
23155;SDS011;11746;50.876;4.246;2024-01-15T08:04:51;8.18;;;3.17;;
23155;SDS011;11746;50.876;4.246;2024-01-15T08:07:17;6.97;;;3.20;;
23155;SDS011;11746;50.876;4.246;2024-01-15T08:09:42;5.20;;;2.83;;
23155;SDS011;11746;50.876;4.246;2024-01-15T08:12:12;6.25;;;2.72;;
23155;SDS011;11746;50.876;4.246;2024-01-15T08:14:40;9.40;;;2.75;;
23155;SDS011;11746;50.876;4.246;2024-01-15T08:17:08;7.30;;;2.83;;
23155;SDS011;11746;50.876;4.246;2024-01-15T08:19:36;9.63;;;2.78;;
23155;SDS011;11746;50.876;4.246;2024-01-15T08:22:02;7.97;;;2.60;;
23155;SDS011;11746;50.876;4.246;2024-01-15T08:24:28;6.82;;;2.53;;
23155;SDS011;11746;50.876;4.246;2024-01-15T08:26:54;5.60;;;2.33;;
23155;SDS011;11746;50.876;4.246;2024-01-15T08:29:21;9.02;;;1.92;;
23155;SDS011;11746;50.876;4.246;2024-01-15T08:31:52;6.07;;;1.75;;
23155;SDS011;11746;50.876;4.246;2024-01-15T08:34:19;6.68;;;2.10;;
23155;SDS011;11746;50.876;4.246;2024-01-15T08:36:45;7.05;;;1.75;;
23155;SDS011;11746;50.876;4.246;2024-01-15T08:39:13;7.80;;;2.05;;
23155;SDS011;11746;50.876;4.246;2024-01-15T08:41:38;7.38;;;1.90;;
23155;SDS011;11746;50.876;4.246;2024-01-15T08:44:08;7.95;;;2.00;;
23155;SDS011;11746;50.876;4.246;2024-01-15T08:46:34;7.95;;;1.63;;
23155;SDS011;11746;50.876;4.246;2024-01-15T08:48:59;2.97;;;1.30;;
23155;SDS011;11746;50.876;4.246;2024-01-15T08:51:28;4.50;;;1.58;;
23155;SDS011;11746;50.876;4.246;2024-01-15T08:53:53;6.15;;;1.60;;
23155;SDS011;11746;50.876;4.246;2024-01-15T08:56:20;4.05;;;1.40;;
23155;SDS011;11746;50.876;4.246;2024-01-15T08:58:45;6.35;;;1.35;;
23155;SDS011;11746;50.876;4.246;2024-01-15T09:01:13;5.30;;;1.40;;
23155;SDS011;11746;50.876;4.246;2024-01-15T09:03:41;3.78;;;1.40;;
23155;SDS011;11746;50.876;4.246;2024-01-15T09:06:07;5.93;;;1.48;;
23155;SDS011;11746;50.876;4.246;2024-01-15T09:08:35;4.88;;;1.50;;
23155;SDS011;11746;50.876;4.246;2024-01-15T09:11:01;6.43;;;1.30;;
23155;SDS011;11746;50.876;4.246;2024-01-15T09:13:28;3.28;;;1.30;;
23155;SDS011;11746;50.876;4.246;2024-01-15T09:15:56;4.75;;;1.00;;
23155;SDS011;11746;50.876;4.246;2024-01-15T09:18:23;4.88;;;1.75;;
23155;SDS011;11746;50.876;4.246;2024-01-15T09:20:51;7.53;;;1.48;;
23155;SDS011;11746;50.876;4.246;2024-01-15T09:23:18;3.67;;;1.25;;
23155;SDS011;11746;50.876;4.246;2024-01-15T09:25:46;7.05;;;1.80;;
23155;SDS011;11746;50.876;4.246;2024-01-15T09:28:14;5.78;;;1.67;;
23155;SDS011;11746;50.876;4.246;2024-01-15T09:30:40;3.05;;;1.40;;
23155;SDS011;11746;50.876;4.246;2024-01-15T09:33:06;5.15;;;1.55;;
23155;SDS011;11746;50.876;4.246;2024-01-15T09:35:31;3.60;;;1.50;;
23155;SDS011;11746;50.876;4.246;2024-01-15T09:38:02;4.15;;;1.48;;
23155;SDS011;11746;50.876;4.246;2024-01-15T09:40:28;6.43;;;1.50;;
23155;SDS011;11746;50.876;4.246;2024-01-15T09:43:00;7.32;;;1.77;;
23155;SDS011;11746;50.876;4.246;2024-01-15T09:45:28;2.58;;;1.27;;
23155;SDS011;11746;50.876;4.246;2024-01-15T09:47:59;5.40;;;1.90;;
23155;SDS011;11746;50.876;4.246;2024-01-15T09:50:27;4.38;;;1.35;;
23155;SDS011;11746;50.876;4.246;2024-01-15T09:52:53;6.13;;;1.80;;
23155;SDS011;11746;50.876;4.246;2024-01-15T09:55:24;4.68;;;1.25;;
23155;SDS011;11746;50.876;4.246;2024-01-15T09:57:50;6.72;;;1.30;;
23155;SDS011;11746;50.876;4.246;2024-01-15T10:00:17;6.05;;;1.45;;
23155;SDS011;11746;50.876;4.246;2024-01-15T10:02:44;5.18;;;1.17;;
23155;SDS011;11746;50.876;4.246;2024-01-15T10:05:09;5.57;;;1.30;;
23155;SDS011;11746;50.876;4.246;2024-01-15T10:07:37;2.50;;;1.40;;
23155;SDS011;11746;50.876;4.246;2024-01-15T10:10:05;5.53;;;1.40;;
23155;SDS011;11746;50.876;4.246;2024-01-15T10:12:34;3.97;;;1.15;;
23155;SDS011;11746;50.876;4.246;2024-01-15T10:15:01;13.10;;;1.65;;
23155;SDS011;11746;50.876;4.246;2024-01-15T10:17:26;5.15;;;1.40;;
23155;SDS011;11746;50.876;4.246;2024-01-15T10:19:52;7.05;;;1.23;;
23155;SDS011;11746;50.876;4.246;2024-01-15T10:22:18;5.53;;;1.85;;
23155;SDS011;11746;50.876;4.246;2024-01-15T10:24:44;4.82;;;1.52;;
23155;SDS011;11746;50.876;4.246;2024-01-15T10:27:10;4.68;;;1.55;;
23155;SDS011;11746;50.876;4.246;2024-01-15T10:29:36;5.53;;;1.38;;
23155;SDS011;11746;50.876;4.246;2024-01-15T10:32:02;4.72;;;1.80;;
23155;SDS011;11746;50.876;4.246;2024-01-15T10:34:31;2.80;;;1.10;;
23155;SDS011;11746;50.876;4.246;2024-01-15T10:37:04;5.20;;;1.50;;
23155;SDS011;11746;50.876;4.246;2024-01-15T10:39:32;7.00;;;1.70;;
23155;SDS011;11746;50.876;4.246;2024-01-15T10:41:58;9.85;;;1.60;;
23155;SDS011;11746;50.876;4.246;2024-01-15T10:44:24;5.90;;;1.13;;
23155;SDS011;11746;50.876;4.246;2024-01-15T10:46:50;5.60;;;1.40;;
23155;SDS011;11746;50.876;4.246;2024-01-15T10:49:16;6.63;;;1.35;;
23155;SDS011;11746;50.876;4.246;2024-01-15T10:51:44;3.53;;;1.38;;
23155;SDS011;11746;50.876;4.246;2024-01-15T10:54:11;9.32;;;1.77;;
23155;SDS011;11746;50.876;4.246;2024-01-15T10:56:40;3.42;;;1.40;;
23155;SDS011;11746;50.876;4.246;2024-01-15T10:59:10;6.70;;;1.40;;
23155;SDS011;11746;50.876;4.246;2024-01-15T11:01:36;8.43;;;2.28;;
23155;SDS011;11746;50.876;4.246;2024-01-15T11:04:02;6.13;;;1.23;;
23155;SDS011;11746;50.876;4.246;2024-01-15T11:06:28;5.38;;;1.20;;
23155;SDS011;11746;50.876;4.246;2024-01-15T11:09:19;6.13;;;1.30;;
23155;SDS011;11746;50.876;4.246;2024-01-15T11:11:45;4.95;;;1.08;;
23155;SDS011;11746;50.876;4.246;2024-01-15T11:15:01;7.60;;;1.00;;
23155;SDS011;11746;50.876;4.246;2024-01-15T11:17:05;5.68;;;1.33;;
23155;SDS011;11746;50.876;4.246;2024-01-15T11:24:36;4.95;;;0.95;;
23155;SDS011;11746;50.876;4.246;2024-01-15T11:27:06;9.25;;;1.33;;
23155;SDS011;11746;50.876;4.246;2024-01-15T11:29:36;4.05;;;1.10;;
23155;SDS011;11746;50.876;4.246;2024-01-15T11:37:23;10.32;;;1.50;;
23155;SDS011;11746;50.876;4.246;2024-01-15T11:39:53;4.10;;;1.50;;
23155;SDS011;11746;50.876;4.246;2024-01-15T11:42:20;6.18;;;1.15;;
23155;SDS011;11746;50.876;4.246;2024-01-15T11:44:46;5.43;;;1.13;;
23155;SDS011;11746;50.876;4.246;2024-01-15T11:47:12;3.40;;;1.42;;
23155;SDS011;11746;50.876;4.246;2024-01-15T11:52:31;6.78;;;1.30;;
23155;SDS011;11746;50.876;4.246;2024-01-15T11:57:34;6.32;;;1.20;;
23155;SDS011;11746;50.876;4.246;2024-01-15T12:00:10;2.65;;;1.10;;
23155;SDS011;11746;50.876;4.246;2024-01-15T12:02:37;6.95;;;1.30;;
23155;SDS011;11746;50.876;4.246;2024-01-15T12:05:11;6.47;;;1.30;;
23155;SDS011;11746;50.876;4.246;2024-01-15T12:07:40;8.35;;;1.10;;
23155;SDS011;11746;50.876;4.246;2024-01-15T12:10:10;2.90;;;1.05;;
23155;SDS011;11746;50.876;4.246;2024-01-15T12:15:28;4.38;;;1.20;;
23155;SDS011;11746;50.876;4.246;2024-01-15T12:17:55;5.68;;;1.27;;
23155;SDS011;11746;50.876;4.246;2024-01-15T12:20:25;4.38;;;0.98;;
23155;SDS011;11746;50.876;4.246;2024-01-15T12:22:54;4.95;;;1.20;;
23155;SDS011;11746;50.876;4.246;2024-01-15T12:25:23;3.35;;;1.10;;
23155;SDS011;11746;50.876;4.246;2024-01-15T12:27:50;7.78;;;1.45;;
23155;SDS011;11746;50.876;4.246;2024-01-15T12:30:18;8.07;;;1.40;;
23155;SDS011;11746;50.876;4.246;2024-01-15T12:32:44;4.35;;;1.13;;
23155;SDS011;11746;50.876;4.246;2024-01-15T12:35:12;7.47;;;1.20;;
23155;SDS011;11746;50.876;4.246;2024-01-15T12:37:42;9.23;;;1.10;;
23155;SDS011;11746;50.876;4.246;2024-01-15T12:40:11;8.13;;;1.30;;
23155;SDS011;11746;50.876;4.246;2024-01-15T12:42:39;7.00;;;1.20;;
23155;SDS011;11746;50.876;4.246;2024-01-15T12:45:08;4.03;;;1.17;;
23155;SDS011;11746;50.876;4.246;2024-01-15T12:47:37;5.78;;;0.90;;
23155;SDS011;11746;50.876;4.246;2024-01-15T12:50:10;6.68;;;1.67;;
23155;SDS011;11746;50.876;4.246;2024-01-15T12:52:42;2.20;;;0.98;;
23155;SDS011;11746;50.876;4.246;2024-01-15T12:55:08;5.13;;;1.75;;
23155;SDS011;11746;50.876;4.246;2024-01-15T12:57:35;4.72;;;1.10;;
23155;SDS011;11746;50.876;4.246;2024-01-15T13:00:03;3.42;;;0.98;;
23155;SDS011;11746;50.876;4.246;2024-01-15T13:02:48;10.50;;;1.75;;
23155;SDS011;11746;50.876;4.246;2024-01-15T13:05:14;5.25;;;1.52;;
23155;SDS011;11746;50.876;4.246;2024-01-15T13:07:44;8.68;;;1.27;;
23155;SDS011;11746;50.876;4.246;2024-01-15T13:10:09;7.55;;;1.40;;
23155;SDS011;11746;50.876;4.246;2024-01-15T13:12:35;5.30;;;1.35;;
23155;SDS011;11746;50.876;4.246;2024-01-15T13:15:02;7.25;;;1.25;;
23155;SDS011;11746;50.876;4.246;2024-01-15T13:17:31;7.13;;;1.60;;
23155;SDS011;11746;50.876;4.246;2024-01-15T13:19:58;8.48;;;1.85;;
23155;SDS011;11746;50.876;4.246;2024-01-15T13:22:24;6.60;;;1.40;;
23155;SDS011;11746;50.876;4.246;2024-01-15T13:24:55;5.88;;;1.27;;
23155;SDS011;11746;50.876;4.246;2024-01-15T13:27:20;8.68;;;1.23;;
23155;SDS011;11746;50.876;4.246;2024-01-15T13:29:51;12.55;;;1.33;;
23155;SDS011;11746;50.876;4.246;2024-01-15T13:32:22;8.23;;;1.30;;
23155;SDS011;11746;50.876;4.246;2024-01-15T13:34:50;4.47;;;1.30;;
23155;SDS011;11746;50.876;4.246;2024-01-15T13:37:16;8.57;;;1.25;;
23155;SDS011;11746;50.876;4.246;2024-01-15T13:39:44;6.10;;;1.10;;
23155;SDS011;11746;50.876;4.246;2024-01-15T13:42:11;7.68;;;1.10;;
23155;SDS011;11746;50.876;4.246;2024-01-15T13:44:37;6.45;;;1.65;;
23155;SDS011;11746;50.876;4.246;2024-01-15T13:47:05;6.05;;;1.40;;
23155;SDS011;11746;50.876;4.246;2024-01-15T13:49:30;8.70;;;1.83;;
23155;SDS011;11746;50.876;4.246;2024-01-15T13:51:56;6.97;;;1.65;;
23155;SDS011;11746;50.876;4.246;2024-01-15T13:54:22;8.90;;;2.38;;
23155;SDS011;11746;50.876;4.246;2024-01-15T13:56:47;7.88;;;1.77;;
23155;SDS011;11746;50.876;4.246;2024-01-15T13:59:14;12.18;;;2.13;;
23155;SDS011;11746;50.876;4.246;2024-01-15T14:01:49;9.20;;;2.42;;
23155;SDS011;11746;50.876;4.246;2024-01-15T14:04:15;8.13;;;1.85;;
23155;SDS011;11746;50.876;4.246;2024-01-15T14:06:43;6.03;;;1.58;;
23155;SDS011;11746;50.876;4.246;2024-01-15T14:09:11;6.40;;;0.95;;
23155;SDS011;11746;50.876;4.246;2024-01-15T14:11:39;6.47;;;1.10;;
23155;SDS011;11746;50.876;4.246;2024-01-15T14:14:05;4.05;;;1.17;;
23155;SDS011;11746;50.876;4.246;2024-01-15T14:16:34;4.85;;;1.75;;
23155;SDS011;11746;50.876;4.246;2024-01-15T14:19:02;3.83;;;1.02;;
23155;SDS011;11746;50.876;4.246;2024-01-15T14:21:27;5.93;;;1.13;;
23155;SDS011;11746;50.876;4.246;2024-01-15T14:23:53;3.40;;;1.70;;
23155;SDS011;11746;50.876;4.246;2024-01-15T14:26:18;9.23;;;1.75;;
23155;SDS011;11746;50.876;4.246;2024-01-15T14:28:47;4.32;;;1.80;;
23155;SDS011;11746;50.876;4.246;2024-01-15T14:31:13;4.13;;;1.63;;
23155;SDS011;11746;50.876;4.246;2024-01-15T14:33:41;4.20;;;1.23;;
23155;SDS011;11746;50.876;4.246;2024-01-15T14:36:06;6.43;;;1.35;;
23155;SDS011;11746;50.876;4.246;2024-01-15T14:38:35;5.15;;;1.38;;
23155;SDS011;11746;50.876;4.246;2024-01-15T14:41:03;4.55;;;1.30;;
23155;SDS011;11746;50.876;4.246;2024-01-15T14:43:29;7.70;;;1.98;;
23155;SDS011;11746;50.876;4.246;2024-01-15T14:45:54;3.80;;;1.35;;
23155;SDS011;11746;50.876;4.246;2024-01-15T14:48:21;3.50;;;0.90;;
23155;SDS011;11746;50.876;4.246;2024-01-15T14:50:47;4.70;;;1.30;;
23155;SDS011;11746;50.876;4.246;2024-01-15T14:53:12;2.95;;;1.20;;
23155;SDS011;11746;50.876;4.246;2024-01-15T14:55:43;2.15;;;0.95;;
23155;SDS011;11746;50.876;4.246;2024-01-15T14:58:08;2.97;;;0.90;;
23155;SDS011;11746;50.876;4.246;2024-01-15T15:00:34;2.22;;;0.90;;
23155;SDS011;11746;50.876;4.246;2024-01-15T15:03:00;2.97;;;0.80;;
23155;SDS011;11746;50.876;4.246;2024-01-15T15:05:25;4.00;;;2.30;;